sim
Sign-in with your pilot id or email,
or register
Callsign
Passwort

Schedule Details

Flight Number: OEC1997
Departure: Thessaloniki International Airport (LGTS) at 11:45Z
Arrival: London Gatwick Airport (EGKK) at 14:55Z
Route: FSK4A FSK UL608 DISOR DCT LONTA UL608 DOLEV DCT RUDIK DCT NEMEK DCT TIBRO Y9 NAXAV Z613 SAFFA UZ613 RONAG UL613 RLP UT10 NITAR UQ220 KESAX UT421 KUNAV TIMB4B

Weather Information
Getting current METAR information for LGTS 211450Z 34007KT CAVOK 16/00 Q1022 NOSIG
Getting current METAR information for EGKK 211450Z 22007KT 190V250 9999 FEW019 13/09 Q1027

Schedule Frequency

Route Map